Time;durP1;ratioP1;P1;durP2;ratioP2;P2;SDS_P1;SDS_P2;PMS_P1;PMS_P2;Temp;Humidity;BMP_temperature;BMP_pressure;BME280_temperature;BME280_humidity;BME280_pressure;Samples;Min_cycle;Max_cycle;Signal;HPM_P1;HPM_P2
2021/08/21 00:00:59;;;;;;;5.88;2.20;;;;;;;26.71;40.72;101352.69;5032847;28;20115;-64
2021/08/21 00:03:26;;;;;;;7.88;2.25;;;;;;;26.67;40.67;101348.69;5032680;28;20072;-65
2021/08/21 00:05:53;;;;;;;3.72;2.10;;;;;;;26.68;40.62;101349.53;5032638;28;20045;-65
2021/08/21 00:08:19;;;;;;;3.65;2.15;;;;;;;26.62;40.81;101343.00;5032556;28;20054;-65
2021/08/21 00:10:46;;;;;;;5.80;1.88;;;;;;;26.61;40.70;101337.78;5032599;28;20053;-65
2021/08/21 00:13:14;;;;;;;5.07;2.00;;;;;;;26.63;40.64;101341.16;5032654;28;20136;-65
2021/08/21 00:15:40;;;;;;;4.45;2.05;;;;;;;26.61;40.64;101344.00;5031960;28;20103;-65
2021/08/21 00:18:07;;;;;;;4.38;2.05;;;;;;;26.60;40.63;101346.88;5032486;28;20079;-64
2021/08/21 00:20:34;;;;;;;7.28;2.15;;;;;;;26.58;40.71;101343.53;5032311;28;20049;-64
2021/08/21 00:23:01;;;;;;;4.03;2.42;;;;;;;26.53;40.70;101342.19;5032422;28;20558;-65
2021/08/21 00:25:27;;;;;;;3.63;2.22;;;;;;;26.53;40.67;101336.81;5032345;28;20048;-64
2021/08/21 00:27:54;;;;;;;4.13;2.00;;;;;;;26.52;40.83;101340.53;5032519;28;20103;-64
2021/08/21 00:30:21;;;;;;;2.97;2.08;;;;;;;26.51;40.83;101346.09;5032371;28;20380;-64
2021/08/21 00:32:49;;;;;;;3.97;2.25;;;;;;;26.50;40.75;101337.19;5032334;28;20049;-65
2021/08/21 00:35:15;;;;;;;3.70;2.20;;;;;;;26.48;40.81;101343.75;5032272;28;20103;-64
2021/08/21 00:37:42;;;;;;;4.38;1.88;;;;;;;26.46;40.71;101346.66;5032328;28;20107;-65
2021/08/21 00:40:09;;;;;;;4.00;2.13;;;;;;;26.44;40.98;101340.59;5032136;28;20096;-64
2021/08/21 00:42:36;;;;;;;3.90;2.38;;;;;;;26.43;40.83;101348.84;5032283;28;20526;-64
2021/08/21 00:45:05;;;;;;;4.28;2.35;;;;;;;26.43;40.99;101346.16;5032245;28;20481;-65
2021/08/21 00:47:31;;;;;;;2.83;2.03;;;;;;;26.39;40.97;101349.19;5032123;28;20041;-65
2021/08/21 00:49:58;;;;;;;3.72;2.25;;;;;;;26.39;41.32;101345.66;5032044;28;20550;-65
2021/08/21 00:52:29;;;;;;;5.65;2.33;;;;;;;26.34;41.09;101342.66;5031982;28;20045;-64
2021/08/21 00:54:56;;;;;;;4.28;2.20;;;;;;;26.32;41.38;101348.22;5032132;28;20049;-64
2021/08/21 00:57:25;;;;;;;4.13;2.38;;;;;;;26.32;41.40;101352.75;5031967;28;20553;-65
2021/08/21 00:59:52;;;;;;;3.97;2.35;;;;;;;26.29;41.57;101350.44;5031914;28;20045;-64
2021/08/21 01:02:20;;;;;;;4.70;2.22;;;;;;;26.23;41.46;101347.44;5031826;28;20460;-64
2021/08/21 01:04:55;;;;;;;4.25;2.35;;;;;;;26.21;41.76;101346.75;5031954;28;20416;-64
2021/08/21 01:07:27;;;;;;;3.35;2.03;;;;;;;26.17;41.86;101345.44;5031851;28;20550;-65
2021/08/21 01:09:53;;;;;;;5.57;2.58;;;;;;;26.14;41.87;101347.63;5031781;28;20057;-65
2021/08/21 01:12:22;;;;;;;3.35;2.05;;;;;;;26.11;41.85;101348.00;5031841;28;20543;-64
2021/08/21 01:14:50;;;;;;;4.20;2.42;;;;;;;26.08;42.07;101350.03;5032053;28;20060;-65
2021/08/21 01:17:19;;;;;;;3.58;2.63;;;;;;;26.05;42.16;101350.34;5032012;28;20049;-65
2021/08/21 01:19:49;;;;;;;4.25;2.45;;;;;;;26.03;42.10;101348.81;5031809;28;20099;-64
2021/08/21 01:22:23;;;;;;;2.83;2.42;;;;;;;26.00;42.09;101352.69;5031758;28;20045;-65
2021/08/21 01:24:51;;;;;;;4.75;2.22;;;;;;;25.99;42.17;101347.50;5031819;28;20046;-64
2021/08/21 01:27:20;;;;;;;3.85;2.30;;;;;;;25.96;42.34;101348.69;5034027;28;20462;-65
2021/08/21 01:29:48;;;;;;;5.60;2.40;;;;;;;25.98;42.39;101340.44;5035629;28;20046;-64
2021/08/21 01:32:15;;;;;;;4.63;2.60;;;;;;;25.95;42.52;101349.69;5035509;28;20099;-64
2021/08/21 01:34:43;;;;;;;5.30;2.20;;;;;;;25.92;42.51;101348.19;5035676;28;20045;-64
2021/08/21 01:37:10;;;;;;;4.53;2.47;;;;;;;25.89;42.60;101348.53;5035552;28;20049;-64
2021/08/21 01:39:37;;;;;;;4.10;2.33;;;;;;;25.89;42.58;101347.69;5035469;28;20053;-64
2021/08/21 01:42:04;;;;;;;4.15;2.25;;;;;;;25.88;42.58;101336.09;5035450;28;20107;-65
2021/08/21 01:44:30;;;;;;;6.60;3.03;;;;;;;25.86;42.71;101346.19;5035491;28;20076;-64
2021/08/21 01:46:57;;;;;;;5.82;2.70;;;;;;;25.88;42.28;101346.88;5035327;28;20491;-65
2021/08/21 01:49:24;;;;;;;4.78;2.20;;;;;;;25.86;42.77;101338.13;5035164;28;20041;-65
2021/08/21 01:51:51;;;;;;;3.90;2.50;;;;;;;25.86;42.65;101334.59;5035228;28;20049;-65
2021/08/21 01:54:19;;;;;;;4.55;2.50;;;;;;;25.83;42.91;101341.16;5035141;28;20459;-65
2021/08/21 01:56:50;;;;;;;2.97;2.20;;;;;;;25.82;42.90;101344.03;5035083;28;20041;-64
2021/08/21 01:59:30;;;;;;;4.65;2.38;;;;;;;25.80;43.05;101346.91;5035062;28;20080;-65
2021/08/21 02:01:58;;;;;;;4.13;2.42;;;;;;;25.79;42.98;101347.06;5035117;28;20049;-64
2021/08/21 02:04:26;;;;;;;3.85;2.20;;;;;;;25.77;42.96;101338.34;5034981;28;20091;-64
2021/08/21 02:06:53;;;;;;;4.00;2.58;;;;;;;25.79;43.03;101342.53;5035098;28;20455;-64
2021/08/21 02:09:22;;;;;;;4.68;2.47;;;;;;;25.77;42.90;101347.25;5034749;28;20057;-65
2021/08/21 02:11:50;;;;;;;5.95;2.60;;;;;;;25.75;42.73;101341.22;5034633;28;20491;-64
2021/08/21 02:14:18;;;;;;;5.45;2.10;;;;;;;25.73;43.09;101338.66;5034854;28;20049;-64
2021/08/21 02:16:48;;;;;;;4.93;2.60;;;;;;;25.72;43.24;101337.00;5034968;28;20050;-64
2021/08/21 02:19:14;;;;;;;4.15;2.63;;;;;;;25.70;43.20;101335.47;5035090;28;20037;-64
2021/08/21 02:21:41;;;;;;;4.93;2.50;;;;;;;25.68;43.05;101337.53;5034660;28;20045;-64
2021/08/21 02:24:08;;;;;;;7.53;2.35;;;;;;;25.67;43.22;101333.97;5034633;28;20109;-64
2021/08/21 02:26:40;;;;;;;5.45;2.13;;;;;;;25.65;43.14;101338.72;5034519;28;20049;-64
2021/08/21 02:29:07;;;;;;;3.42;2.33;;;;;;;25.65;43.25;101341.41;5034639;28;20053;-64
2021/08/21 02:31:34;;;;;;;7.07;2.53;;;;;;;25.63;43.24;101337.22;5034443;28;20084;-64
2021/08/21 02:34:01;;;;;;;5.22;2.40;;;;;;;25.58;43.48;101338.56;5034506;28;20123;-64
2021/08/21 02:36:28;;;;;;;4.72;2.38;;;;;;;25.54;43.75;101336.38;5034380;28;20053;-64
2021/08/21 02:38:55;;;;;;;4.90;2.55;;;;;;;25.47;44.14;101340.75;5033726;28;20045;-64
2021/08/21 02:41:22;;;;;;;4.40;2.28;;;;;;;25.48;44.32;101337.88;5034301;28;20451;-65
2021/08/21 02:43:49;;;;;;;5.10;2.55;;;;;;;25.48;44.42;101339.75;5034305;28;20061;-64
2021/08/21 02:46:17;;;;;;;3.13;2.58;;;;;;;25.45;44.40;101343.63;5034107;28;20042;-65
2021/08/21 02:48:43;;;;;;;3.70;2.05;;;;;;;25.38;44.85;101343.47;5034152;28;20041;-64
2021/08/21 02:51:11;;;;;;;3.83;2.28;;;;;;;25.36;45.05;101350.03;5034122;28;20519;-64
2021/08/21 02:53:37;;;;;;;5.00;2.45;;;;;;;25.29;45.56;101340.91;5033964;28;20056;-64
2021/08/21 02:56:04;;;;;;;4.00;2.40;;;;;;;25.24;46.29;101338.72;5034177;28;20045;-64
2021/08/21 02:58:31;;;;;;;5.85;2.42;;;;;;;25.19;47.10;101346.47;5034197;28;20046;-65
2021/08/21 03:00:57;;;;;;;5.53;2.80;;;;;;;25.12;47.53;101343.63;5034079;28;20053;-65
2021/08/21 03:03:24;;;;;;;4.32;2.63;;;;;;;25.11;47.95;101344.63;5030024;28;20060;-65
2021/08/21 03:05:51;;;;;;;10.05;2.80;;;;;;;25.04;47.95;101346.28;5030500;28;20095;-64
2021/08/21 03:08:17;;;;;;;5.40;3.28;;;;;;;24.99;47.90;101340.59;5029860;28;20065;-65
2021/08/21 03:10:44;;;;;;;4.15;2.67;;;;;;;24.94;47.98;101349.16;5030515;28;20123;-65
2021/08/21 03:13:11;;;;;;;5.45;2.78;;;;;;;24.89;47.90;101344.28;5030221;28;20115;-65
2021/08/21 03:15:37;;;;;;;3.78;2.45;;;;;;;24.86;47.77;101347.31;5029925;28;20053;-64
2021/08/21 03:18:04;;;;;;;4.57;2.50;;;;;;;24.84;47.81;101351.19;5030395;28;20129;-65
2021/08/21 03:20:31;;;;;;;4.18;2.20;;;;;;;24.75;47.79;101350.31;5030018;28;20049;-65
2021/08/21 03:22:57;;;;;;;7.88;2.47;;;;;;;24.77;47.85;101359.03;5030064;28;20107;-64
2021/08/21 03:25:24;;;;;;;3.65;2.63;;;;;;;24.78;47.52;101364.25;5030345;28;20099;-65
2021/08/21 03:27:51;;;;;;;3.47;2.22;;;;;;;24.76;47.81;101365.44;5030409;28;20088;-64
2021/08/21 03:30:18;;;;;;;6.07;2.72;;;;;;;24.73;48.06;101358.50;5030011;28;20041;-65
2021/08/21 03:32:45;;;;;;;6.28;2.97;;;;;;;24.70;47.98;101360.72;5029709;28;20054;-65
2021/08/21 03:35:12;;;;;;;3.17;2.53;;;;;;;24.69;47.74;101361.72;5029888;28;20176;-64
2021/08/21 03:37:38;;;;;;;3.95;2.65;;;;;;;24.68;47.81;101368.91;5029751;28;20488;-65
2021/08/21 03:40:06;;;;;;;3.28;2.20;;;;;;;24.67;48.11;101369.94;5029900;28;20041;-64
2021/08/21 03:42:32;;;;;;;5.07;2.67;;;;;;;24.66;47.94;101370.06;5029782;28;20053;-65
2021/08/21 03:44:59;;;;;;;5.15;2.60;;;;;;;24.59;48.29;101370.72;5029772;28;20545;-64
2021/08/21 03:47:26;;;;;;;8.57;2.50;;;;;;;24.59;48.25;101377.94;5029463;28;20107;-65
2021/08/21 03:49:52;;;;;;;6.70;2.72;;;;;;;24.56;47.85;101384.47;5028643;28;20091;-64
2021/08/21 03:52:19;;;;;;;3.17;2.40;;;;;;;24.55;48.04;101381.94;5029468;28;20057;-65
2021/08/21 03:54:45;;;;;;;4.45;2.53;;;;;;;24.54;48.19;101388.31;5029483;28;20053;-65
2021/08/21 03:57:13;;;;;;;4.75;2.83;;;;;;;24.50;48.75;101395.00;5029317;28;20049;-65
2021/08/21 03:59:39;;;;;;;4.80;3.00;;;;;;;24.49;48.48;101396.00;5029678;28;20080;-65
2021/08/21 04:02:06;;;;;;;10.30;2.75;;;;;;;24.47;48.24;101396.19;5029396;28;20045;-65
2021/08/21 04:04:32;;;;;;;4.20;2.55;;;;;;;24.49;48.28;101396.00;5029276;28;20128;-65
2021/08/21 04:06:59;;;;;;;6.07;2.45;;;;;;;24.52;48.17;101398.34;5029167;28;20053;-65
2021/08/21 04:09:26;;;;;;;7.50;3.05;;;;;;;24.53;48.37;101397.34;5028958;28;20206;-64
2021/08/21 04:11:52;;;;;;;4.70;2.67;;;;;;;24.53;48.39;101392.84;5029033;28;20049;-64
2021/08/21 04:14:19;;;;;;;4.28;2.83;;;;;;;24.50;48.42;101403.88;5029062;28;20111;-64
2021/08/21 04:16:45;;;;;;;4.90;3.00;;;;;;;24.51;48.58;101400.22;5029250;28;20095;-65
2021/08/21 04:19:12;;;;;;;4.97;2.67;;;;;;;24.49;48.75;101396.00;5029047;28;20045;-65
2021/08/21 04:21:40;;;;;;;7.18;3.22;;;;;;;24.41;49.05;101400.34;5029243;28;20488;-64
2021/08/21 04:24:07;;;;;;;4.47;3.13;;;;;;;24.42;49.07;101402.03;5029131;28;20053;-65
2021/08/21 04:26:33;;;;;;;6.40;3.85;;;;;;;24.43;49.27;101406.38;5029074;28;20045;-65
2021/08/21 04:29:00;;;;;;;6.25;3.67;;;;;;;24.40;48.64;101405.88;5028825;28;20042;-65
2021/08/21 04:31:27;;;;;;;7.50;3.75;;;;;;;24.43;48.61;101405.56;5028852;28;20049;-64
2021/08/21 04:33:54;;;;;;;8.15;3.60;;;;;;;24.43;48.64;101408.25;5028774;28;20523;-65
2021/08/21 04:36:21;;;;;;;5.03;3.50;;;;;;;24.43;48.45;101406.38;5028701;28;20053;-64
2021/08/21 04:38:47;;;;;;;8.63;4.18;;;;;;;24.43;48.12;101405.56;5028770;28;20076;-64
2021/08/21 04:41:14;;;;;;;6.70;3.70;;;;;;;24.41;48.49;101415.59;5028669;28;20049;-65
2021/08/21 04:43:41;;;;;;;7.18;3.40;;;;;;;24.40;48.89;101424.66;5028868;28;20049;-64
2021/08/21 04:46:07;;;;;;;9.50;4.68;;;;;;;24.39;49.21;101420.28;5028670;28;20081;-65
2021/08/21 04:48:34;;;;;;;7.10;3.83;;;;;;;24.36;49.69;101413.41;5028981;28;20475;-65
2021/08/21 04:51:03;;;;;;;4.72;3.67;;;;;;;24.37;50.08;101420.44;5028916;28;20053;-64
2021/08/21 04:53:29;;;;;;;8.98;3.80;;;;;;;24.39;50.07;101415.78;5028350;28;20106;-64
2021/08/21 04:55:56;;;;;;;5.45;3.88;;;;;;;24.38;49.74;101414.09;5028761;28;20049;-64
2021/08/21 04:58:22;;;;;;;8.48;3.97;;;;;;;24.42;49.40;101418.13;5028482;28;20042;-64
2021/08/21 05:00:49;;;;;;;6.60;3.42;;;;;;;24.45;49.38;101420.50;5028500;28;20487;-64
2021/08/21 05:03:16;;;;;;;7.50;3.45;;;;;;;24.51;48.90;101420.84;5032569;28;20136;-64
2021/08/21 05:05:44;;;;;;;5.85;3.42;;;;;;;24.56;48.92;101423.88;5032618;28;20053;-64
2021/08/21 05:08:10;;;;;;;7.65;3.50;;;;;;;24.58;48.64;101421.84;5032505;28;20562;-64
2021/08/21 05:10:37;;;;;;;4.93;3.13;;;;;;;24.61;48.33;101422.38;5032761;28;20045;-64
2021/08/21 05:13:03;;;;;;;5.28;2.72;;;;;;;24.66;48.38;101415.69;5032686;28;20415;-65
2021/08/21 05:15:33;;;;;;;7.15;3.13;;;;;;;24.72;48.18;101417.72;5032527;28;20045;-64
2021/08/21 05:18:02;;;;;;;5.55;2.70;;;;;;;24.75;47.97;101420.94;5032515;28;20045;-65
2021/08/21 05:20:30;;;;;;;6.95;3.25;;;;;;;24.82;47.82;101420.28;5032300;28;20111;-65
2021/08/21 05:25:30;;;;;;;3.88;2.63;;;;;;;24.88;47.46;101423.13;5032276;28;20541;-64
2021/08/21 05:27:57;;;;;;;5.45;2.70;;;;;;;24.93;47.34;101425.34;5032547;28;20049;-64
2021/08/21 05:30:27;;;;;;;5.10;2.88;;;;;;;24.98;47.18;101435.59;5032221;28;20095;-65
2021/08/21 05:32:55;;;;;;;6.13;2.88;;;;;;;25.04;47.04;101432.22;5032111;28;20099;-65
2021/08/21 05:35:22;;;;;;;5.32;2.58;;;;;;;25.08;46.92;101430.91;5032218;28;20041;-64
2021/08/21 05:37:49;;;;;;;4.55;2.80;;;;;;;25.13;46.85;101428.56;5032273;28;20107;-65
2021/08/21 05:40:16;;;;;;;9.10;2.88;;;;;;;25.17;46.52;101437.13;5031804;28;20132;-65
2021/08/21 05:42:43;;;;;;;7.03;2.50;;;;;;;25.19;46.61;101430.59;5032053;28;20058;-65
2021/08/21 05:45:10;;;;;;;4.60;2.55;;;;;;;25.24;46.20;101422.00;5031592;28;20045;-65
2021/08/21 05:47:37;;;;;;;4.60;2.72;;;;;;;25.31;45.95;101425.72;5032048;28;20080;-65
2021/08/21 05:50:04;;;;;;;7.63;3.30;;;;;;;25.33;46.28;101429.09;5014282;28;20064;-65
2021/08/21 05:52:30;;;;;;;4.93;2.90;;;;;;;25.38;46.09;101429.44;5031573;28;20050;-65
2021/08/21 05:54:57;;;;;;;3.40;2.67;;;;;;;25.44;46.13;101427.91;5031830;28;20060;-65
2021/08/21 05:57:23;;;;;;;7.40;3.03;;;;;;;25.51;46.02;101430.75;5031882;28;20417;-65
2021/08/21 05:59:50;;;;;;;6.05;3.20;;;;;;;25.52;46.31;101432.44;5031591;28;20482;-66
2021/08/21 06:02:17;;;;;;;3.38;2.67;;;;;;;25.56;46.03;101431.94;5031568;28;20460;-65
2021/08/21 06:04:43;;;;;;;4.68;2.75;;;;;;;25.62;45.89;101443.88;5031375;28;20049;-66
2021/08/21 06:07:10;;;;;;;11.30;3.08;;;;;;;25.68;45.75;101442.34;5031618;28;20160;-65
2021/08/21 06:09:37;;;;;;;6.47;2.80;;;;;;;25.74;45.39;101442.50;5031294;28;20054;-65
2021/08/21 06:12:04;;;;;;;5.85;3.30;;;;;;;25.82;45.26;101440.84;5031671;28;20072;-65
2021/08/21 06:14:34;;;;;;;6.97;3.28;;;;;;;25.88;45.05;101449.03;5030394;28;20049;-65
2021/08/21 06:17:01;;;;;;;3.33;2.47;;;;;;;25.94;44.96;101449.38;5031363;28;20045;-65
2021/08/21 06:19:27;;;;;;;4.95;2.63;;;;;;;26.00;44.65;101454.88;5031166;28;20103;-65
2021/08/21 06:21:54;;;;;;;7.03;2.90;;;;;;;26.08;44.34;101448.72;5031371;28;20073;-65
2021/08/21 06:24:20;;;;;;;5.20;2.90;;;;;;;26.15;44.23;101460.44;5031627;28;20057;-65
2021/08/21 06:26:47;;;;;;;6.10;3.38;;;;;;;26.18;44.17;101448.50;5031221;28;20053;-65
2021/08/21 06:29:14;;;;;;;5.68;2.80;;;;;;;26.26;43.93;101458.38;5031145;28;20155;-65
2021/08/21 06:31:40;;;;;;;9.98;3.13;;;;;;;26.31;43.94;101462.25;5031006;28;20556;-65
2021/08/21 06:34:07;;;;;;;9.73;3.60;;;;;;;26.38;43.99;101460.53;5030813;28;20049;-65
2021/08/21 06:36:33;;;;;;;8.77;3.55;;;;;;;26.44;43.74;101463.56;5031046;28;20054;-66
2021/08/21 06:39:00;;;;;;;7.22;3.45;;;;;;;26.52;43.77;101467.03;5031167;28;20049;-65
2021/08/21 06:41:27;;;;;;;6.78;3.38;;;;;;;26.52;43.80;101469.72;5030776;28;20500;-66
2021/08/21 06:43:53;;;;;;;6.10;3.28;;;;;;;26.56;43.72;101463.00;5031081;28;20046;-65
2021/08/21 06:46:20;;;;;;;5.82;3.22;;;;;;;26.63;43.46;101470.38;5030837;28;20041;-66
2021/08/21 06:48:47;;;;;;;8.75;2.95;;;;;;;26.72;42.98;101472.81;5030712;28;20080;-65
2021/08/21 06:51:13;;;;;;;4.68;2.63;;;;;;;26.83;43.05;101470.78;5030575;28;20491;-65
2021/08/21 06:53:40;;;;;;;5.13;2.60;;;;;;;26.89;42.85;101470.94;5030448;28;20045;-66
2021/08/21 06:56:07;;;;;;;5.25;2.85;;;;;;;26.99;42.49;101467.16;5030594;28;20057;-65
2021/08/21 06:58:33;;;;;;;7.95;2.95;;;;;;;27.11;42.46;101470.28;5030763;28;20049;-66
2021/08/21 07:01:00;;;;;;;4.00;2.42;;;;;;;27.22;42.16;101469.88;5030932;28;20053;-65
2021/08/21 07:03:27;;;;;;;6.43;2.97;;;;;;;27.38;41.79;101471.63;5030364;28;20054;-66
2021/08/21 07:05:53;;;;;;;6.80;3.50;;;;;;;27.46;41.54;101471.56;5030228;28;20049;-65
2021/08/21 07:08:20;;;;;;;9.20;3.45;;;;;;;27.60;41.23;101467.22;5030323;28;20045;-65
2021/08/21 07:10:47;;;;;;;6.63;4.18;;;;;;;27.62;41.25;101475.16;5030263;28;20049;-65
2021/08/21 07:13:13;;;;;;;7.03;4.05;;;;;;;27.72;41.04;101461.41;5030434;28;20454;-65
2021/08/21 07:15:40;;;;;;;6.38;3.40;;;;;;;27.74;41.07;101462.88;5030316;28;20120;-65
2021/08/21 07:18:06;;;;;;;8.18;3.42;;;;;;;27.88;40.59;101457.72;5030091;28;20049;-65
2021/08/21 07:20:33;;;;;;;8.48;3.90;;;;;;;28.01;40.57;101455.19;5030354;28;20096;-65
2021/08/21 07:23:00;;;;;;;5.78;3.17;;;;;;;28.12;40.74;101460.16;5030268;28;20519;-65
2021/08/21 07:25:27;;;;;;;7.07;2.63;;;;;;;28.18;40.30;101454.03;5029921;28;20053;-65
2021/08/21 07:27:53;;;;;;;16.58;3.45;;;;;;;28.33;39.57;101453.19;5030118;28;20049;-65
2021/08/21 07:30:21;;;;;;;5.72;2.75;;;;;;;28.37;39.19;101457.19;5030188;28;20042;-65
2021/08/21 07:32:47;;;;;;;7.65;2.40;;;;;;;28.48;38.72;101448.63;5029988;28;20049;-65
2021/08/21 07:35:14;;;;;;;6.07;2.42;;;;;;;28.60;38.54;101450.84;5029917;28;20046;-65
2021/08/21 07:37:41;;;;;;;9.02;2.42;;;;;;;28.69;38.44;101451.59;5029836;28;20046;-65
2021/08/21 07:40:09;;;;;;;3.63;2.35;;;;;;;28.80;37.73;101459.19;5029566;28;20096;-65
2021/08/21 07:42:36;;;;;;;4.53;1.98;;;;;;;28.93;37.40;101461.22;5029697;28;20052;-64
2021/08/21 07:45:04;;;;;;;3.17;2.13;;;;;;;28.87;37.23;101459.28;5029680;28;20096;-65
2021/08/21 07:47:30;;;;;;;6.28;2.10;;;;;;;29.07;36.90;101463.00;5029555;28;20071;-65
2021/08/21 07:49:57;;;;;;;4.65;3.13;;;;;;;29.15;36.97;101460.19;5029762;28;20455;-65
2021/08/21 07:52:24;;;;;;;4.63;3.20;;;;;;;29.20;37.07;101461.47;5029966;28;20114;-65
2021/08/21 07:54:50;;;;;;;8.13;2.97;;;;;;;29.26;37.10;101458.00;5029450;28;20553;-65
2021/08/21 07:57:17;;;;;;;4.68;2.83;;;;;;;29.28;36.71;101459.50;5029213;28;20058;-65
2021/08/21 07:59:43;;;;;;;5.00;2.80;;;;;;;29.48;36.75;101461.53;5029736;28;20053;-65
2021/08/21 08:02:10;;;;;;;4.63;2.25;;;;;;;29.50;36.89;101459.50;5029244;28;20103;-65
2021/08/21 08:04:37;;;;;;;6.43;2.33;;;;;;;29.58;36.24;101464.75;5029251;28;20053;-65
2021/08/21 08:07:04;;;;;;;8.52;2.58;;;;;;;29.64;36.41;101468.53;5029373;28;20045;-65
2021/08/21 08:09:31;;;;;;;5.20;2.35;;;;;;;29.87;35.68;101456.66;5029026;28;20132;-65
2021/08/21 08:11:58;;;;;;;5.93;2.67;;;;;;;29.88;35.00;101466.44;5029059;28;20442;-65
2021/08/21 08:14:24;;;;;;;3.78;2.15;;;;;;;30.00;34.70;101466.75;5028956;28;20045;-65
2021/08/21 08:16:52;;;;;;;4.22;2.42;;;;;;;30.10;34.32;101469.94;5029335;28;20046;-65
2021/08/21 08:19:18;;;;;;;2.70;2.20;;;;;;;30.16;33.99;101468.28;5028956;28;20049;-65
2021/08/21 08:21:45;;;;;;;3.33;1.77;;;;;;;30.40;33.50;101465.09;5029029;28;20100;-65
2021/08/21 08:24:13;;;;;;;3.60;2.58;;;;;;;30.52;33.42;101468.06;5028834;28;20053;-65
2021/08/21 08:26:40;;;;;;;3.55;1.90;;;;;;;30.65;33.00;101474.59;5028952;28;20122;-65
2021/08/21 08:29:07;;;;;;;5.68;2.00;;;;;;;30.84;32.41;101471.09;5029168;28;20523;-65
2021/08/21 08:31:33;;;;;;;4.32;2.10;;;;;;;30.84;32.15;101476.50;5028911;28;20095;-65
2021/08/21 08:34:00;;;;;;;4.22;1.85;;;;;;;31.03;31.55;101476.78;5028965;28;20510;-65
2021/08/21 08:36:26;;;;;;;3.05;1.95;;;;;;;31.03;31.38;101477.63;5028315;28;20711;-65
2021/08/21 08:38:53;;;;;;;3.83;2.35;;;;;;;31.20;30.90;101474.56;5028753;28;20053;-65
2021/08/21 08:41:22;;;;;;;5.43;2.70;;;;;;;31.32;30.40;101472.88;5028982;28;20045;-65
2021/08/21 08:43:49;;;;;;;7.20;2.60;;;;;;;31.49;30.54;101484.16;5028667;28;20053;-65
2021/08/21 08:46:20;;;;;;;7.18;3.15;;;;;;;31.61;30.83;101481.66;5028478;28;20104;-65
2021/08/21 08:48:48;;;;;;;5.85;3.13;;;;;;;31.67;30.80;101478.13;5028655;28;20053;-65
2021/08/21 08:51:15;;;;;;;6.60;2.58;;;;;;;31.70;30.64;101475.00;5028527;28;20045;-65
2021/08/21 08:53:42;;;;;;;4.40;2.70;;;;;;;31.87;30.00;101480.84;5028533;28;20045;-65
2021/08/21 08:56:08;;;;;;;5.97;2.83;;;;;;;32.08;29.69;101473.47;5028865;28;20050;-65
2021/08/21 08:58:36;;;;;;;3.88;2.30;;;;;;;32.17;28.64;101469.47;5028318;28;20128;-65
2021/08/21 09:01:03;;;;;;;3.53;2.00;;;;;;;32.33;27.91;101470.91;5028501;28;20050;-65
2021/08/21 09:03:30;;;;;;;4.57;2.00;;;;;;;32.48;27.86;101467.09;5028461;28;20550;-65
2021/08/21 09:05:56;;;;;;;5.13;2.30;;;;;;;32.66;27.06;101472.66;5028629;28;20450;-65
2021/08/21 09:08:28;;;;;;;3.50;2.55;;;;;;;32.63;27.82;101464.09;5028498;28;20115;-65
2021/08/21 09:10:59;;;;;;;3.50;2.45;;;;;;;32.77;27.30;101470.34;5028636;28;20488;-65
2021/08/21 09:13:28;;;;;;;2.47;1.95;;;;;;;32.87;27.06;101466.09;5028435;28;20049;-65
2021/08/21 09:15:59;;;;;;;3.10;1.85;;;;;;;32.94;26.54;101467.91;5028608;28;20061;-65
2021/08/21 09:18:29;;;;;;;3.20;2.22;;;;;;;33.10;26.61;101477.44;5028697;28;20049;-65
2021/08/21 09:21:11;;;;;;;5.40;2.78;;;;;;;33.15;26.30;101474.91;5028213;28;20053;-65
2021/08/21 09:23:46;;;;;;;6.78;2.97;;;;;;;33.26;26.57;101470.66;5028285;28;20041;-66
2021/08/21 09:26:36;;;;;;;6.70;3.05;;;;;;;33.43;26.75;101469.06;5028387;28;20160;-65
2021/08/21 09:29:03;;;;;;;3.75;2.72;;;;;;;33.69;26.38;101469.91;5028236;28;20045;-66
2021/08/21 09:31:33;;;;;;;6.95;2.42;;;;;;;33.75;27.05;101468.16;5028028;28;20450;-66
2021/08/21 09:34:01;;;;;;;6.63;2.47;;;;;;;33.69;26.90;101459.00;5028153;28;20060;-65
2021/08/21 09:36:39;;;;;;;5.50;2.33;;;;;;;33.85;26.47;101463.91;5027971;28;20046;-65
2021/08/21 09:39:08;;;;;;;5.78;2.40;;;;;;;33.83;26.63;101465.19;5028342;28;20056;-65
2021/08/21 09:41:56;;;;;;;3.80;2.10;;;;;;;34.12;26.24;101463.59;5028112;28;20053;-65
2021/08/21 09:44:28;;;;;;;4.50;2.03;;;;;;;34.32;26.08;101457.91;5028184;28;20103;-65
2021/08/21 09:47:15;;;;;;;7.97;2.55;;;;;;;34.56;25.85;101459.94;5028065;28;20041;-66
2021/08/21 09:49:43;;;;;;;6.43;2.17;;;;;;;34.55;25.98;101458.28;5031899;28;20049;-65
2021/08/21 09:52:13;;;;;;;5.88;2.65;;;;;;;34.47;26.80;101452.06;5032010;28;20045;-65
2021/08/21 09:55:03;;;;;;;4.53;2.03;;;;;;;34.50;26.26;101448.09;5031885;28;20122;-65
2021/08/21 09:57:31;;;;;;;4.57;2.25;;;;;;;34.62;26.54;101448.13;5021265;28;20099;-65
2021/08/21 10:00:00;;;;;;;4.57;2.40;;;;;;;34.73;26.34;101438.31;5032011;28;20045;-65
2021/08/21 10:02:31;;;;;;;3.33;1.92;;;;;;;34.92;26.02;101444.56;5031458;28;20045;-65
2021/08/21 10:04:59;;;;;;;3.63;2.10;;;;;;;35.02;26.19;101446.72;5031709;28;20049;-65
2021/08/21 10:07:37;;;;;;;4.88;2.17;;;;;;;35.13;25.27;101445.94;5031242;28;20107;-65
2021/08/21 10:10:05;;;;;;;4.53;2.10;;;;;;;35.10;25.71;101439.03;5031494;28;20057;-66
2021/08/21 10:12:34;;;;;;;3.17;2.10;;;;;;;34.94;26.11;101448.72;5031427;28;20088;-65
2021/08/21 10:15:02;;;;;;;3.20;2.03;;;;;;;35.22;25.42;101444.50;5031376;28;20092;-65
2021/08/21 10:17:30;;;;;;;4.35;1.85;;;;;;;35.55;25.08;101445.84;5031323;28;20103;-65
2021/08/21 10:19:57;;;;;;;5.18;2.45;;;;;;;35.60;24.99;101448.72;5031225;28;20049;-65
2021/08/21 10:22:29;;;;;;;5.00;2.05;;;;;;;35.72;24.79;101442.41;5031139;28;20053;-65
2021/08/21 10:25:03;;;;;;;5.75;2.15;;;;;;;35.91;25.09;101446.72;5031141;28;20087;-65
2021/08/21 10:27:38;;;;;;;5.13;2.00;;;;;;;36.11;25.19;101445.47;5031095;28;20053;-65
2021/08/21 10:30:25;;;;;;;4.82;2.20;;;;;;;36.13;24.58;101435.94;5031249;28;20042;-66
2021/08/21 10:33:03;;;;;;;3.15;2.08;;;;;;;36.21;24.63;101439.38;5031067;28;20053;-65
2021/08/21 10:35:48;;;;;;;4.07;1.92;;;;;;;36.11;24.41;101437.28;5030851;28;20053;-65
2021/08/21 10:38:32;;;;;;;3.78;1.90;;;;;;;36.45;23.61;101427.31;5031180;28;20216;-66
2021/08/21 10:40:58;;;;;;;2.65;1.85;;;;;;;36.55;23.76;101429.41;5030835;28;20041;-65
2021/08/21 10:43:46;;;;;;;5.07;2.67;;;;;;;36.64;23.78;101437.25;5031009;28;20041;-65
2021/08/21 10:46:32;;;;;;;3.78;1.85;;;;;;;36.52;23.65;101427.19;5030864;28;20046;-67
2021/08/21 10:49:05;;;;;;;4.40;2.22;;;;;;;36.71;23.53;101421.47;5030641;28;20190;-66
2021/08/21 10:51:43;;;;;;;4.40;2.67;;;;;;;36.79;23.26;101426.56;5030636;28;20057;-66
2021/08/21 10:54:18;;;;;;;6.70;1.92;;;;;;;36.96;23.06;101423.88;5030514;28;20046;-65
2021/08/21 10:56:46;;;;;;;5.50;1.92;;;;;;;37.07;23.48;101422.13;5030307;28;20072;-65
2021/08/21 10:59:32;;;;;;;5.10;1.90;;;;;;;36.95;23.83;101426.84;5029794;28;20092;-65
2021/08/21 11:02:31;;;;;;;4.97;2.00;;;;;;;37.11;23.66;101427.94;5030296;28;20604;-66
2021/08/21 11:05:00;;;;;;;4.28;2.00;;;;;;;36.95;23.97;101426.84;5030283;28;20061;-65
2021/08/21 11:07:29;;;;;;;3.00;1.90;;;;;;;37.04;23.68;101419.88;5030180;28;20045;-66
2021/08/21 11:10:16;;;;;;;3.45;2.20;;;;;;;37.26;23.77;101423.53;5030078;28;20053;-65
2021/08/21 11:12:47;;;;;;;2.97;1.95;;;;;;;37.38;23.86;101417.16;5030568;28;20099;-66
2021/08/21 11:15:33;;;;;;;4.05;1.90;;;;;;;37.61;23.84;101418.03;5030316;28;20317;-66
2021/08/21 11:18:02;;;;;;;2.60;1.80;;;;;;;37.56;23.82;101416.91;5030070;28;20046;-65
2021/08/21 11:20:29;;;;;;;6.07;1.98;;;;;;;37.55;23.74;101415.22;5029921;28;20514;-65
2021/08/21 11:23:08;;;;;;;3.60;1.65;;;;;;;37.50;23.66;101411.59;5030167;28;20049;-66
2021/08/21 11:25:37;;;;;;;3.72;1.83;;;;;;;37.65;23.64;101411.81;5030062;28;20045;-66
2021/08/21 11:28:06;;;;;;;2.72;1.83;;;;;;;37.76;23.44;101401.81;5030051;28;20057;-66
2021/08/21 11:30:35;;;;;;;4.78;1.88;;;;;;;37.77;23.61;101411.69;5029930;28;20049;-66
2021/08/21 11:33:06;;;;;;;3.40;1.90;;;;;;;37.71;23.43;101407.22;5030105;28;20107;-66